Terminal Aerodrome Forecast
Issued by NWS

Home | Current Version | Previous Version | Text Only | Print | Product List | Glossary On
Versions: 1 2 3 4 5 6 7 8 9 10 11 12 13 14 15 16 17 18 19
000
FTUS45 KABQ 241305 AAA
TAFFMN
TAF AMD
KFMN 241305Z 2413/2512 28008KT P6SM SCT009 OVC070
      TEMPO 2414/2416 1/2SM SN FZFG BKN009
     FM241600 27011KT P6SM VCSH SCT015 OVC040
     FM241900 28012G22KT P6SM VCSH OVC050
      TEMPO 2420/2424 6SM -SHRASN OVC035
     FM250100 28010KT P6SM BKN040
     FM250700 29006KT P6SM VCFG SCT005 BKN035=

USA.gov is the U.S. government's official web portal to all federal, state and local government web resources and services.